Time;durP1;ratioP1;P1;durP2;ratioP2;P2;SDS_P1;SDS_P2;PMS_P1;PMS_P2;Temp;Humidity;BMP_temperature;BMP_pressure;BME280_temperature;BME280_humidity;BME280_pressure;Samples;Min_cycle;Max_cycle;Signal;HPM_P1;HPM_P2
2021/05/10 00:00:05;;;;;;;5.03;2.73;;;;;;;18.42;44.07;96896.75;8282349;28;20217;-63
2021/05/10 00:04:07;;;;;;;4.80;3.17;;;;;;;17.77;44.33;96889.56;8308870;28;20214;-63
2021/05/10 00:08:10;;;;;;;5.00;2.87;;;;;;;18.08;44.10;96895.44;8321240;28;20446;-63
2021/05/10 00:12:13;;;;;;;3.90;2.60;;;;;;;18.12;43.34;96894.19;8321286;28;20295;-63
2021/05/10 00:16:15;;;;;;;3.83;2.20;;;;;;;18.16;43.20;96895.59;8320962;28;20201;-63
2021/05/10 00:20:17;;;;;;;4.47;2.50;;;;;;;18.21;43.29;96891.72;8320921;28;20216;-63
2021/05/10 00:24:20;;;;;;;3.23;2.17;;;;;;;18.13;43.00;96895.03;8320784;28;20423;-63
2021/05/10 00:28:22;;;;;;;3.80;2.47;;;;;;;18.00;43.12;96910.22;8320564;28;20261;-63
2021/05/10 00:32:24;;;;;;;7.17;2.97;;;;;;;17.89;43.41;96903.34;8320522;28;20244;-63
2021/05/10 00:36:33;;;;;;;6.23;2.53;;;;;;;17.99;43.58;96904.16;8320411;28;20201;-63
2021/05/10 00:40:36;;;;;;;5.27;2.73;;;;;;;17.95;42.28;96902.78;8320170;28;20211;-63
2021/05/10 00:44:38;;;;;;;3.83;2.23;;;;;;;17.41;44.15;96899.75;8320421;28;20415;-63
2021/05/10 00:48:39;;;;;;;4.30;1.93;;;;;;;17.72;43.16;96899.59;8320505;28;20201;-63
2021/05/10 00:52:41;;;;;;;6.40;2.27;;;;;;;17.62;43.45;96891.75;8320253;28;20229;-64
2021/05/10 00:56:44;;;;;;;3.70;2.20;;;;;;;17.35;43.93;96885.41;8319668;28;20211;-63
2021/05/10 01:00:46;;;;;;;4.27;2.30;;;;;;;17.43;43.58;96894.38;8319694;28;20204;-63
2021/05/10 01:04:48;;;;;;;5.40;2.40;;;;;;;17.23;44.23;96896.13;8288741;28;20316;-63
2021/05/10 01:08:50;;;;;;;2.67;2.30;;;;;;;17.42;43.80;96900.56;8286831;28;20270;-63
2021/05/10 01:12:53;;;;;;;5.73;2.60;;;;;;;17.02;44.69;96911.94;8286481;28;20232;-63
2021/05/10 01:16:54;;;;;;;4.70;2.27;;;;;;;17.32;43.98;96903.16;8286893;28;20288;-63
2021/05/10 01:21:00;;;;;;;5.73;2.47;;;;;;;17.15;44.54;96908.13;8286639;28;20221;-63
2021/05/10 01:25:04;;;;;;;3.57;2.40;;;;;;;16.93;45.31;96908.34;8287051;28;20202;-63
2021/05/10 01:29:06;;;;;;;3.00;2.47;;;;;;;16.98;45.43;96920.06;8286489;28;20206;-63
2021/05/10 01:33:09;;;;;;;4.03;2.30;;;;;;;17.43;44.68;96916.13;8286387;28;20236;-63
2021/05/10 01:37:16;;;;;;;4.57;2.50;;;;;;;17.43;44.82;96912.69;8286393;28;20202;-63
2021/05/10 01:41:19;;;;;;;3.20;2.30;;;;;;;17.36;45.01;96912.41;8286034;28;20216;-63
2021/05/10 01:45:20;;;;;;;3.10;2.50;;;;;;;17.56;44.66;96916.69;8285808;28;20382;-63
2021/05/10 01:49:22;;;;;;;3.83;2.40;;;;;;;17.54;44.67;96912.56;8286243;28;20212;-63
2021/05/10 01:53:24;;;;;;;3.10;2.60;;;;;;;17.47;44.88;96904.44;8285188;28;20226;-63
2021/05/10 01:57:27;;;;;;;3.03;2.53;;;;;;;17.51;44.92;96913.66;8285369;28;20201;-63
2021/05/10 02:01:29;;;;;;;6.07;2.70;;;;;;;17.51;45.26;96915.44;8285561;28;20206;-63
2021/05/10 02:05:31;;;;;;;5.43;2.70;;;;;;;17.45;45.37;96908.97;8284702;28;20233;-63
2021/05/10 02:09:33;;;;;;;6.20;3.00;;;;;;;17.33;45.41;96915.31;8285258;28;20507;-63
2021/05/10 02:13:36;;;;;;;4.47;3.00;;;;;;;17.40;45.67;96916.41;8285057;28;20230;-63
2021/05/10 02:17:38;;;;;;;6.17;3.27;;;;;;;17.44;44.54;96901.25;8284460;28;20210;-63
2021/05/10 02:21:40;;;;;;;4.37;3.00;;;;;;;17.43;45.08;96910.09;8284662;28;20213;-63
2021/05/10 02:25:43;;;;;;;4.83;3.23;;;;;;;17.31;46.00;96915.44;8284648;28;20213;-63
2021/05/10 02:29:46;;;;;;;4.70;2.70;;;;;;;17.11;46.35;96906.72;8284385;28;20208;-63
2021/05/10 02:33:48;;;;;;;3.37;2.70;;;;;;;16.70;47.39;96907.69;8284150;28;20233;-63
2021/05/10 02:37:51;;;;;;;5.43;2.47;;;;;;;16.75;47.51;96916.78;8284538;28;20308;-63
2021/05/10 02:41:52;;;;;;;3.33;2.77;;;;;;;16.89;46.42;96910.41;8283705;28;20214;-63
2021/05/10 02:45:55;;;;;;;3.23;2.80;;;;;;;16.83;46.92;96918.78;8283915;28;20202;-63
2021/05/10 02:49:57;;;;;;;3.70;3.10;;;;;;;16.90;46.60;96911.22;8284294;28;20492;-63
2021/05/10 02:53:59;;;;;;;6.00;3.37;;;;;;;16.65;47.35;96925.53;8283707;28;20245;-63
2021/05/10 02:58:01;;;;;;;4.67;3.10;;;;;;;16.72;47.30;96930.13;8283657;28;20273;-63
2021/05/10 03:02:04;;;;;;;7.13;2.97;;;;;;;16.89;46.93;96939.16;8283255;28;20206;-63
2021/05/10 03:06:06;;;;;;;6.33;2.60;;;;;;;16.41;47.78;96942.34;8283218;28;20241;-63
2021/05/10 03:10:10;;;;;;;4.97;2.60;;;;;;;16.34;48.12;96936.81;8283141;28;20226;-63
2021/05/10 03:14:12;;;;;;;5.30;2.60;;;;;;;16.56;47.51;96941.06;8283016;28;20237;-63
2021/05/10 03:18:15;;;;;;;4.87;2.73;;;;;;;16.11;48.47;96928.28;8283148;28;20201;-63
2021/05/10 03:22:16;;;;;;;3.87;2.70;;;;;;;16.08;48.60;96917.28;8292864;28;20225;-63
2021/05/10 03:26:18;;;;;;;4.53;2.60;;;;;;;15.95;48.98;96923.50;8306139;28;20209;-63
2021/05/10 03:30:22;;;;;;;5.03;2.33;;;;;;;16.41;48.17;96937.97;8293928;28;20210;-63
2021/05/10 03:34:25;;;;;;;3.53;2.43;;;;;;;16.36;47.95;96932.28;8282518;28;20292;-63
2021/05/10 03:38:26;;;;;;;4.77;2.40;;;;;;;16.18;48.31;96934.66;8299537;28;20495;-63
2021/05/10 03:42:28;;;;;;;6.33;2.40;;;;;;;16.36;47.36;96944.53;8315022;28;20219;-64
2021/05/10 03:46:31;;;;;;;7.53;2.83;;;;;;;16.21;48.11;96951.84;8315343;28;20205;-63
2021/05/10 03:50:34;;;;;;;3.83;2.70;;;;;;;16.38;48.41;96961.72;8314856;28;20212;-63
2021/05/10 03:54:36;;;;;;;4.23;2.53;;;;;;;16.55;47.13;96962.09;8304317;28;20236;-63
2021/05/10 03:58:38;;;;;;;7.70;2.40;;;;;;;16.47;47.57;96954.06;8275732;28;20213;-63
2021/05/10 04:02:40;;;;;;;3.53;2.53;;;;;;;16.34;47.69;96952.50;8265020;28;20210;-64
2021/05/10 04:06:55;;;;;;;3.70;2.60;;;;;;;16.57;47.27;96947.09;8278307;28;20245;-63
2021/05/10 04:11:01;;;;;;;4.90;2.60;;;;;;;16.26;47.98;96935.78;8265462;28;20194;-63
2021/05/10 04:15:03;;;;;;;4.53;2.60;;;;;;;16.20;48.23;96943.19;8260435;28;20485;-63
2021/05/10 04:19:05;;;;;;;6.23;2.57;;;;;;;16.67;46.96;96963.66;8249525;28;20209;-63
2021/05/10 04:23:10;;;;;;;3.00;2.30;;;;;;;16.83;46.54;96965.84;8249668;28;20206;-63
2021/05/10 04:27:12;;;;;;;7.17;4.00;;;;;;;16.53;46.99;96956.16;8249765;28;20273;-63
2021/05/10 04:31:14;;;;;;;7.37;3.93;;;;;;;16.28;47.88;96954.78;8310429;28;20228;-63
2021/05/10 04:35:16;;;;;;;3.77;2.50;;;;;;;16.22;48.39;96946.50;8302480;28;20201;-63
2021/05/10 04:39:18;;;;;;;4.37;2.07;;;;;;;16.34;48.07;96949.06;8262720;28;20485;-63
2021/05/10 04:43:20;;;;;;;5.43;2.73;;;;;;;16.41;47.94;96953.63;8249967;28;20203;-63
2021/05/10 04:47:22;;;;;;;5.37;2.37;;;;;;;16.65;47.02;96962.13;8249760;28;20202;-63
2021/05/10 04:51:24;;;;;;;6.60;2.63;;;;;;;16.63;47.40;96969.28;8253165;28;20296;-63
2021/05/10 04:55:27;;;;;;;7.50;2.60;;;;;;;16.42;47.22;96968.34;8255207;28;20202;-63
2021/05/10 04:59:29;;;;;;;5.70;2.27;;;;;;;16.35;48.01;96976.81;8254768;28;20202;-63
2021/05/10 05:03:31;;;;;;;5.87;2.77;;;;;;;16.67;46.92;96988.97;8275055;28;20519;-63
2021/05/10 05:07:33;;;;;;;9.77;2.60;;;;;;;16.87;46.52;96992.53;8287012;28;20543;-63
2021/05/10 05:11:36;;;;;;;7.53;2.60;;;;;;;16.59;47.40;96995.66;8287147;28;20535;-63
2021/05/10 05:15:38;;;;;;;4.20;2.60;;;;;;;16.81;46.81;96999.94;8286681;28;20202;-63
2021/05/10 05:19:40;;;;;;;6.17;2.30;;;;;;;16.31;47.72;97004.16;8287199;28;20201;-63
2021/05/10 05:23:42;;;;;;;6.80;2.50;;;;;;;16.69;47.41;97005.34;8286748;28;20217;-63
2021/05/10 05:27:44;;;;;;;6.13;2.20;;;;;;;16.69;47.56;97007.97;8286954;28;20206;-63
2021/05/10 05:31:47;;;;;;;3.47;2.17;;;;;;;17.03;46.29;97005.97;8283879;28;20236;-63
2021/05/10 05:35:49;;;;;;;5.13;2.50;;;;;;;17.20;46.14;97014.97;8286718;28;20481;-63
2021/05/10 05:39:51;;;;;;;4.03;2.30;;;;;;;17.63;45.31;97033.94;8286660;28;20201;-63
2021/05/10 05:43:53;;;;;;;7.03;2.63;;;;;;;17.93;45.59;97051.38;8294864;28;20246;-64
2021/05/10 05:47:55;;;;;;;3.63;2.53;;;;;;;18.22;44.00;97034.84;8302507;28;20206;-64
2021/05/10 05:51:58;;;;;;;5.00;2.77;;;;;;;18.48;42.83;97038.56;8280739;28;20221;-63
2021/05/10 05:56:00;;;;;;;4.70;2.43;;;;;;;18.65;43.19;97044.88;8291059;28;20205;-63
2021/05/10 06:00:04;;;;;;;5.10;2.60;;;;;;;18.56;43.02;97038.69;8286223;28;20198;-64
2021/05/10 06:04:06;;;;;;;5.10;2.50;;;;;;;18.72;43.57;97039.91;8286249;28;20209;-64
2021/05/10 06:08:08;;;;;;;4.40;2.33;;;;;;;18.80;43.87;97040.06;8281429;28;20234;-64
2021/05/10 06:12:10;;;;;;;4.80;2.40;;;;;;;18.80;43.89;97049.69;8285223;28;20435;-66
2021/05/10 06:16:13;;;;;;;3.87;2.20;;;;;;;19.09;42.84;97063.56;8273882;28;20216;-69
2021/05/10 06:20:17;;;;;;;8.10;2.37;;;;;;;19.44;42.29;97061.22;8268033;28;20265;-69
2021/05/10 06:24:21;;;;;;;11.37;2.93;;;;;;;19.57;42.79;97068.75;8268140;28;20319;-69
2021/05/10 06:28:23;;;;;;;5.57;2.27;;;;;;;19.79;42.24;97072.81;8267235;28;20199;-69
2021/05/10 06:32:26;;;;;;;4.43;2.43;;;;;;;19.98;42.16;97070.06;8269764;28;20551;-63
2021/05/10 06:36:28;;;;;;;7.50;2.40;;;;;;;20.20;41.67;97060.91;8282782;28;20197;-63
2021/05/10 06:40:30;;;;;;;8.00;3.30;;;;;;;20.21;41.68;97059.94;8283235;28;20205;-64
2021/05/10 06:44:32;;;;;;;4.23;2.17;;;;;;;20.77;41.16;97065.00;8283202;28;20212;-64
2021/05/10 06:48:35;;;;;;;5.83;2.27;;;;;;;21.08;40.88;97073.28;8283567;28;20202;-63
2021/05/10 06:52:37;;;;;;;6.50;2.20;;;;;;;20.83;40.99;97067.03;8283860;28;20296;-64
2021/05/10 06:56:40;;;;;;;8.70;2.30;;;;;;;20.79;40.33;97071.78;8283702;28;20261;-63
2021/05/10 07:00:41;;;;;;;6.40;2.10;;;;;;;21.58;39.15;97077.00;8283150;28;20507;-63
2021/05/10 07:04:44;;;;;;;6.93;2.20;;;;;;;21.74;38.67;97074.44;8284291;28;20227;-63
2021/05/10 07:08:46;;;;;;;5.70;2.10;;;;;;;21.89;38.58;97068.53;8282979;28;20225;-63
2021/05/10 07:12:48;;;;;;;6.70;2.80;;;;;;;21.04;39.94;97061.41;8282621;28;20274;-63
2021/05/10 07:16:50;;;;;;;5.63;2.00;;;;;;;20.94;40.08;97053.59;8283621;28;20198;-63
2021/05/10 07:20:53;;;;;;;7.43;2.20;;;;;;;21.18;39.96;97055.53;8251186;28;20208;-63
2021/05/10 07:24:55;;;;;;;3.50;1.97;;;;;;;21.65;38.23;97064.84;8266187;28;20202;-63
2021/05/10 07:28:57;;;;;;;7.23;1.93;;;;;;;21.62;38.34;97073.88;8283225;28;20208;-64
2021/05/10 07:33:00;;;;;;;5.23;2.00;;;;;;;22.08;38.19;97070.84;8282020;28;20227;-64
2021/05/10 07:37:03;;;;;;;5.70;1.80;;;;;;;22.37;37.12;97077.50;8279427;28;20202;-65
2021/05/10 07:41:05;;;;;;;6.03;1.70;;;;;;;22.31;37.35;97075.53;8282340;28;20205;-64
2021/05/10 07:45:07;;;;;;;3.40;1.90;;;;;;;22.80;36.73;97089.56;8282152;28;20401;-68
2021/05/10 07:49:09;;;;;;;3.53;2.00;;;;;;;23.49;35.90;97077.72;8281990;28;20209;-68
2021/05/10 07:53:14;;;;;;;9.40;2.27;;;;;;;24.08;35.43;97082.56;8282064;28;20427;-68
2021/05/10 07:57:16;;;;;;;3.27;1.73;;;;;;;23.92;35.48;97089.59;8283017;28;20244;-69
2021/05/10 08:01:18;;;;;;;4.67;1.90;;;;;;;23.49;36.08;97083.81;8282792;28;20193;-69
2021/05/10 08:05:21;;;;;;;3.30;1.87;;;;;;;24.61;34.27;97094.13;8281575;28;20251;-70
2021/05/10 08:09:24;;;;;;;3.43;1.80;;;;;;;24.33;34.31;97102.59;8281916;28;20211;-70
2021/05/10 08:13:27;;;;;;;2.53;1.53;;;;;;;24.06;34.16;97088.03;8282118;28;20329;-69
2021/05/10 08:17:31;;;;;;;9.03;1.93;;;;;;;25.11;33.09;97099.78;8281790;28;20208;-70
2021/05/10 08:21:33;;;;;;;8.50;2.07;;;;;;;25.48;31.46;97098.94;8280700;28;20219;-70
2021/05/10 08:25:37;;;;;;;3.03;1.60;;;;;;;25.87;31.18;97099.63;8284046;28;20201;-69
2021/05/10 08:29:39;;;;;;;9.07;1.70;;;;;;;26.22;29.38;97098.00;8287710;28;20252;-68
2021/05/10 08:33:41;;;;;;;4.20;1.57;;;;;;;26.40;29.25;97102.88;8287854;28;20246;-67
2021/05/10 08:37:43;;;;;;;4.67;1.30;;;;;;;26.55;28.75;97116.09;8287770;28;20211;-67
2021/05/10 08:41:45;;;;;;;4.80;1.50;;;;;;;26.73;27.97;97102.38;8287349;28;20217;-71
2021/05/10 08:45:53;;;;;;;6.50;1.60;;;;;;;26.83;27.37;97097.56;8287782;28;20412;-72
2021/05/10 08:49:54;;;;;;;6.27;1.60;;;;;;;26.59;27.38;97104.09;8287808;28;20203;-71
2021/05/10 08:53:57;;;;;;;5.50;1.70;;;;;;;26.76;27.59;97094.03;8287200;28;20244;-70
2021/05/10 08:58:00;;;;;;;4.07;1.50;;;;;;;26.80;25.61;97081.19;8287220;28;20405;-71
2021/05/10 09:02:03;;;;;;;2.73;1.40;;;;;;;26.72;25.93;97084.81;8294839;28;20205;-74
2021/05/10 09:06:08;;;;;;;5.33;1.50;;;;;;;26.27;26.33;97084.16;8319228;28;20243;-70
2021/05/10 09:10:11;;;;;;;5.07;1.70;;;;;;;25.53;28.05;97085.13;8319379;28;20343;-70
2021/05/10 09:14:14;;;;;;;3.80;1.10;;;;;;;26.51;26.77;97085.63;8318639;28;20230;-68
2021/05/10 09:18:37;;;;;;;2.73;1.40;;;;;;;27.09;25.44;97102.28;8319178;28;20197;-68
2021/05/10 09:22:47;;;;;;;2.43;1.37;;;;;;;27.35;25.06;97094.69;8289395;28;20210;-68
2021/05/10 09:26:49;;;;;;;4.70;1.43;;;;;;;27.15;25.38;97105.16;8285769;28;20396;-66
2021/05/10 09:30:53;;;;;;;3.27;1.17;;;;;;;27.48;25.39;97108.06;8285204;28;20224;-65
2021/05/10 09:35:31;;;;;;;2.67;1.40;;;;;;;28.01;25.13;97113.63;8285786;28;20225;-67
2021/05/10 09:39:36;;;;;;;2.83;1.30;;;;;;;28.30;24.61;97102.88;8285173;28;20206;-67
2021/05/10 09:43:39;;;;;;;6.90;1.60;;;;;;;28.43;24.45;97109.03;8285398;28;20270;-67
2021/05/10 09:47:42;;;;;;;2.40;1.10;;;;;;;28.50;24.09;97102.88;8286450;28;20204;-67
2021/05/10 09:51:44;;;;;;;2.13;1.20;;;;;;;28.63;24.10;97103.75;8284828;28;20211;-66
2021/05/10 09:56:08;;;;;;;5.50;1.30;;;;;;;28.75;23.42;97098.66;8285447;28;20198;-68
2021/05/10 10:00:20;;;;;;;4.53;1.30;;;;;;;28.55;23.79;97101.28;8282290;28;20217;-68
2021/05/10 10:04:24;;;;;;;7.27;1.53;;;;;;;29.10;23.75;97082.44;8285222;28;20229;-69
2021/05/10 10:08:26;;;;;;;3.50;1.60;;;;;;;29.27;24.03;97085.50;8285818;28;20314;-69
2021/05/10 10:12:28;;;;;;;5.70;1.63;;;;;;;28.99;25.15;97091.88;8284831;28;20232;-71
2021/05/10 10:16:32;;;;;;;5.17;1.60;;;;;;;29.36;24.41;97094.94;8285195;28;20445;-69
2021/05/10 10:20:36;;;;;;;5.37;1.60;;;;;;;29.29;24.26;97088.78;8284763;28;20227;-68
2021/05/10 10:24:39;;;;;;;13.13;2.40;;;;;;;29.44;24.80;97085.88;8284693;28;20558;-69
2021/05/10 10:29:05;;;;;;;12.43;1.60;;;;;;;29.72;23.99;97080.25;8283954;28;20203;-71
2021/05/10 10:33:11;;;;;;;4.30;1.40;;;;;;;29.61;24.38;97088.91;8283890;28;20227;-68
2021/05/10 10:37:15;;;;;;;3.77;1.67;;;;;;;29.64;25.02;97085.81;8283970;28;20202;-69
2021/05/10 10:41:25;;;;;;;6.93;1.50;;;;;;;30.10;24.67;97084.81;8284343;28;20216;-69
2021/05/10 10:45:28;;;;;;;4.30;1.50;;;;;;;29.62;24.79;97088.69;8284146;28;20216;-69
2021/05/10 10:49:32;;;;;;;6.30;1.30;;;;;;;29.67;24.66;97097.91;8283818;28;20511;-68
2021/05/10 10:53:45;;;;;;;3.47;1.40;;;;;;;28.68;25.21;97110.34;8284795;28;20230;-69
2021/05/10 10:57:47;;;;;;;3.67;1.30;;;;;;;28.37;25.50;97106.34;8283576;28;20208;-69
2021/05/10 11:01:49;;;;;;;5.90;1.70;;;;;;;29.57;25.55;97096.50;8282695;28;20349;-70
2021/05/10 11:05:51;;;;;;;13.83;2.40;;;;;;;29.70;25.07;97110.81;8282399;28;20362;-71
2021/05/10 11:09:54;;;;;;;5.73;1.50;;;;;;;30.05;24.83;97111.34;8283739;28;20500;-72
2021/05/10 11:13:58;;;;;;;4.53;1.93;;;;;;;30.24;25.52;97116.78;8283300;28;20303;-72
2021/05/10 11:18:00;;;;;;;3.87;1.40;;;;;;;30.36;24.62;97129.25;8282922;28;20202;-70
2021/05/10 11:22:03;;;;;;;5.67;1.20;;;;;;;30.07;24.16;97127.94;8283109;28;20213;-70
2021/05/10 11:26:07;;;;;;;7.37;1.40;;;;;;;30.14;24.84;97126.06;8282813;28;20309;-70
2021/05/10 11:30:10;;;;;;;8.10;1.40;;;;;;;30.45;25.16;97127.16;8283418;28;20199;-69
2021/05/10 11:34:15;;;;;;;4.50;1.60;;;;;;;30.32;24.08;97122.72;8283343;28;20237;-71
2021/05/10 11:38:18;;;;;;;4.87;1.60;;;;;;;30.54;24.55;97119.69;8282568;28;20505;-71
2021/05/10 11:42:26;;;;;;;2.60;1.50;;;;;;;30.18;25.21;97139.81;8283399;28;20205;-70
2021/05/10 11:46:39;;;;;;;32.13;6.00;;;;;;;29.89;25.35;97141.16;8284024;28;20198;-71
2021/05/10 11:50:49;;;;;;;4.17;1.33;;;;;;;29.89;24.54;97144.66;8282266;28;20205;-72
2021/05/10 11:54:53;;;;;;;6.27;1.50;;;;;;;29.76;24.99;97164.19;8283310;28;20233;-73
2021/05/10 11:59:00;;;;;;;4.10;1.40;;;;;;;29.97;24.53;97168.44;8282546;28;20194;-73
2021/05/10 12:03:02;;;;;;;11.43;2.23;;;;;;;30.10;25.78;97154.22;8295273;28;20237;-71
2021/05/10 12:07:06;;;;;;;3.03;1.40;;;;;;;30.10;25.74;97161.41;8287950;28;20251;-70
2021/05/10 12:11:21;;;;;;;10.00;1.93;;;;;;;29.70;25.69;97172.19;8302970;28;20514;-71
2021/05/10 12:15:30;;;;;;;4.60;1.53;;;;;;;29.86;25.53;97173.63;8286566;28;20233;-71
2021/05/10 12:19:54;;;;;;;5.23;1.40;;;;;;;29.79;26.80;97177.09;8281378;28;20559;-70
2021/05/10 12:24:05;;;;;;;4.97;1.60;;;;;;;29.68;26.92;97172.38;8278897;28;20212;-70
2021/05/10 12:28:09;;;;;;;11.10;1.83;;;;;;;29.54;26.96;97174.28;8281102;28;20232;-70
2021/05/10 12:32:12;;;;;;;8.17;1.70;;;;;;;29.17;27.52;97186.44;8281431;28;20349;-71
2021/05/10 12:36:14;;;;;;;2.97;1.50;;;;;;;28.82;27.50;97170.56;8281083;28;20196;-71
2021/05/10 12:40:17;;;;;;;4.80;1.50;;;;;;;28.87;28.32;97170.78;8281281;28;20205;-70
2021/05/10 12:44:23;;;;;;;8.47;1.77;;;;;;;28.69;28.53;97157.25;8280871;28;20405;-70
2021/05/10 12:48:26;;;;;;;8.93;1.87;;;;;;;28.39;28.82;97160.25;8281371;28;20471;-69
2021/05/10 12:52:28;;;;;;;39.23;5.27;;;;;;;28.25;29.00;97159.34;8280604;28;20226;-70
2021/05/10 12:56:41;;;;;;;7.93;2.37;;;;;;;28.29;29.45;97165.91;8280745;28;20211;-70
2021/05/10 13:00:43;;;;;;;8.30;1.80;;;;;;;28.06;29.99;97167.09;8280283;28;20197;-70
2021/05/10 13:04:46;;;;;;;3.07;1.67;;;;;;;28.01;30.67;97160.72;8309994;28;20494;-70
2021/05/10 13:08:49;;;;;;;7.03;2.03;;;;;;;27.64;30.81;97162.75;8312819;28;20209;-70
2021/05/10 13:12:51;;;;;;;3.77;2.00;;;;;;;27.47;31.58;97171.06;8316781;28;20352;-70
2021/05/10 13:17:06;;;;;;;6.50;1.90;;;;;;;27.24;31.80;97194.34;8302669;28;20217;-70
2021/05/10 13:21:35;;;;;;;8.93;2.27;;;;;;;26.92;32.83;97197.38;8284335;28;20228;-70
2021/05/10 13:34:38;;;;;;;11.20;2.20;;;;;;;26.18;33.63;97202.88;8284286;28;20242;-70
2021/05/10 13:38:40;;;;;;;12.63;1.90;;;;;;;26.12;33.82;97193.00;8285282;28;20282;-68
2021/05/10 13:42:42;;;;;;;4.20;1.80;;;;;;;26.04;35.04;97198.41;8285508;28;20357;-70
2021/05/10 13:46:47;;;;;;;4.77;1.60;;;;;;;26.13;35.66;97186.69;8284342;28;20522;-69
2021/05/10 13:50:51;;;;;;;13.80;1.80;;;;;;;25.97;36.53;97184.22;8284076;28;20322;-71
2021/05/10 13:54:54;;;;;;;7.67;2.07;;;;;;;25.84;36.40;97175.06;8284363;28;20372;-71
2021/05/10 13:58:56;;;;;;;5.73;1.77;;;;;;;25.92;35.85;97167.03;8284086;28;20213;-71
2021/05/10 14:02:58;;;;;;;9.57;1.83;;;;;;;26.04;36.14;97169.22;8299673;28;20207;-71
2021/05/10 14:07:00;;;;;;;5.70;1.90;;;;;;;26.02;36.11;97174.72;8315605;28;20248;-72
2021/05/10 14:11:04;;;;;;;7.03;1.97;;;;;;;25.92;36.44;97163.56;8316073;28;20205;-71
2021/05/10 14:15:06;;;;;;;5.53;1.80;;;;;;;26.10;36.42;97169.31;8304290;28;20530;-71
2021/05/10 14:19:10;;;;;;;5.53;1.57;;;;;;;25.70;36.24;97174.09;8297501;28;20209;-69
2021/05/10 14:23:12;;;;;;;12.30;1.90;;;;;;;25.63;36.19;97190.91;8288015;28;20223;-73
2021/05/10 14:27:15;;;;;;;73.27;8.53;;;;;;;25.40;36.26;97183.00;8286045;28;20534;-64
2021/05/10 14:31:17;;;;;;;5.23;1.33;;;;;;;25.52;36.85;97179.72;8284173;28;20224;-64
2021/05/10 14:35:19;;;;;;;9.73;1.73;;;;;;;25.38;37.23;97180.56;8315310;28;20229;-64
2021/05/10 14:39:21;;;;;;;6.93;1.50;;;;;;;25.41;37.17;97185.47;8295903;28;20226;-63
2021/05/10 14:43:23;;;;;;;10.27;1.93;;;;;;;25.46;36.37;97187.59;8283037;28;20466;-64
2021/05/10 14:47:25;;;;;;;6.97;1.60;;;;;;;25.35;36.85;97194.16;8283091;28;20212;-63
2021/05/10 14:51:27;;;;;;;7.63;1.70;;;;;;;25.43;35.76;97190.59;8308637;28;20208;-64
2021/05/10 14:55:29;;;;;;;8.67;1.70;;;;;;;25.38;36.27;97195.59;8313288;28;20236;-65
2021/05/10 14:59:32;;;;;;;4.68;1.60;;;;;;;25.52;35.63;97202.78;8283449;28;20453;-64
2021/05/10 15:03:34;;;;;;;3.57;1.43;;;;;;;24.97;36.41;97186.19;8282354;28;20205;-64
2021/05/10 15:07:36;;;;;;;13.07;1.97;;;;;;;24.90;37.39;97190.53;8282296;28;20243;-63
2021/05/10 15:11:38;;;;;;;3.00;1.30;;;;;;;24.78;37.52;97193.59;8281950;28;20240;-64
2021/05/10 15:15:41;;;;;;;5.90;1.30;;;;;;;24.58;37.71;97200.38;8281981;28;20259;-64
2021/05/10 15:19:43;;;;;;;5.67;1.40;;;;;;;24.49;36.94;97190.78;8282288;28;20202;-64
2021/05/10 15:23:46;;;;;;;5.83;1.50;;;;;;;24.47;37.18;97184.84;8283941;28;20213;-64
2021/05/10 15:27:47;;;;;;;4.13;1.40;;;;;;;24.78;36.32;97192.78;8280013;28;20430;-64
2021/05/10 15:31:51;;;;;;;3.73;1.20;;;;;;;24.28;36.71;97186.94;8281537;28;20211;-64
2021/05/10 15:35:53;;;;;;;5.37;1.07;;;;;;;24.31;37.32;97183.09;8281418;28;20230;-64
2021/05/10 15:39:55;;;;;;;6.40;1.10;;;;;;;24.35;37.06;97195.00;8281448;28;20224;-64
2021/05/10 15:43:57;;;;;;;4.90;1.10;;;;;;;24.34;36.69;97198.66;8281538;28;20216;-64
2021/05/10 15:48:00;;;;;;;4.40;1.13;;;;;;;24.26;36.72;97206.63;8281854;28;20284;-65
2021/05/10 15:52:03;;;;;;;8.23;1.10;;;;;;;24.09;36.80;97206.69;8281291;28;20198;-65
2021/05/10 15:56:05;;;;;;;5.17;0.97;;;;;;;24.04;36.85;97200.28;8291494;28;20233;-64
2021/05/10 16:00:09;;;;;;;5.33;1.00;;;;;;;24.11;37.53;97188.84;8294509;28;20202;-64
2021/05/10 16:04:12;;;;;;;5.57;1.10;;;;;;;23.91;37.00;97188.44;8283558;28;20205;-65
2021/05/10 16:08:14;;;;;;;2.37;0.70;;;;;;;24.11;37.60;97182.72;8291347;28;20270;-64
2021/05/10 16:12:15;;;;;;;20.60;2.20;;;;;;;24.10;37.99;97168.66;8299726;28;20242;-64
2021/05/10 16:16:17;;;;;;;2.60;0.80;;;;;;;23.98;37.58;97156.84;8296437;28;20234;-64
2021/05/10 16:20:20;;;;;;;6.00;0.90;;;;;;;23.96;38.29;97153.53;8280678;28;20201;-64
2021/05/10 16:24:22;;;;;;;1.37;0.83;;;;;;;23.85;38.27;97157.38;8293678;28;20259;-64
2021/05/10 16:28:24;;;;;;;10.27;1.20;;;;;;;23.73;38.11;97156.91;8305953;28;20205;-64
2021/05/10 16:32:26;;;;;;;5.17;0.83;;;;;;;23.71;38.45;97150.16;8280205;28;20286;-64
2021/05/10 16:36:29;;;;;;;4.90;1.10;;;;;;;23.53;38.92;97168.84;8290197;28;20512;-63
2021/05/10 16:40:32;;;;;;;7.90;1.10;;;;;;;23.55;38.64;97158.94;8306465;28;20539;-64
2021/05/10 16:44:34;;;;;;;2.33;0.80;;;;;;;23.52;38.79;97146.91;8293987;28;20202;-64
2021/05/10 16:48:36;;;;;;;4.00;0.77;;;;;;;23.38;38.14;97160.78;8285483;28;20205;-64
2021/05/10 16:52:41;;;;;;;3.67;0.73;;;;;;;23.38;38.50;97163.44;8290561;28;20200;-64
2021/05/10 16:56:43;;;;;;;1.23;0.70;;;;;;;23.30;38.16;97152.88;8288313;28;20201;-64
2021/05/10 17:00:45;;;;;;;17.03;1.80;;;;;;;23.36;38.14;97160.97;8293491;28;20208;-64
2021/05/10 17:04:47;;;;;;;4.00;1.17;;;;;;;23.35;38.33;97171.72;8286949;28;20326;-64
2021/05/10 17:08:50;;;;;;;3.10;1.10;;;;;;;23.21;37.46;97183.78;8285244;28;20525;-64
2021/05/10 17:12:52;;;;;;;5.00;1.10;;;;;;;22.99;37.26;97188.69;8285379;28;20229;-64
2021/05/10 17:16:54;;;;;;;1.57;0.70;;;;;;;22.95;36.79;97183.94;8285650;28;20256;-64
2021/05/10 17:20:56;;;;;;;2.93;0.60;;;;;;;22.89;36.60;97182.78;8284450;28;20198;-64
2021/05/10 17:24:59;;;;;;;3.07;0.60;;;;;;;22.86;37.49;97179.63;8282353;28;20212;-65
2021/05/10 17:29:01;;;;;;;3.40;0.83;;;;;;;22.78;37.76;97172.53;8285894;28;20209;-64
2021/05/10 17:33:03;;;;;;;1.83;0.83;;;;;;;22.76;38.46;97169.25;8285872;28;20258;-65
2021/05/10 17:37:05;;;;;;;2.57;0.80;;;;;;;22.68;38.34;97159.50;8285026;28;20220;-64
2021/05/10 17:41:08;;;;;;;2.70;0.73;;;;;;;22.74;38.44;97155.38;8284994;28;20217;-66
2021/05/10 17:45:11;;;;;;;3.37;0.70;;;;;;;22.65;38.20;97152.72;8284657;28;20414;-65
2021/05/10 17:49:13;;;;;;;3.20;0.80;;;;;;;22.59;38.70;97163.94;8284718;28;20208;-64
2021/05/10 17:53:16;;;;;;;3.27;0.90;;;;;;;22.54;39.46;97171.53;8285260;28;20588;-64
2021/05/10 17:57:35;;;;;;;1.70;0.93;;;;;;;22.48;39.74;97166.06;8284443;28;20200;-63
2021/05/10 18:05:57;;;;;;;0.60;0.60;;;;;;;22.40;39.72;97148.41;8272527;28;20239;-63
2021/05/10 18:10:00;;;;;;;2.93;0.67;;;;;;;22.32;39.69;97137.88;8284149;28;20220;-63
2021/05/10 18:14:23;;;;;;;2.67;0.70;;;;;;;22.40;39.81;97136.03;8284411;28;20226;-63
2021/05/10 18:18:31;;;;;;;2.23;0.63;;;;;;;22.32;40.30;97125.50;8284188;28;20214;-63
2021/05/10 18:22:33;;;;;;;2.23;0.60;;;;;;;22.25;40.55;97121.84;8284367;28;20215;-63
2021/05/10 18:26:37;;;;;;;1.57;0.70;;;;;;;22.18;41.02;97110.25;8283940;28;20331;-63
2021/05/10 18:30:40;;;;;;;3.97;0.90;;;;;;;22.06;41.22;97110.56;8284553;28;20203;-63
2021/05/10 18:34:42;;;;;;;1.60;0.70;;;;;;;21.96;41.10;97116.97;8282819;28;20220;-64
2021/05/10 18:38:44;;;;;;;2.97;0.80;;;;;;;21.74;41.13;97110.47;8282813;28;20518;-64
2021/05/10 18:42:46;;;;;;;0.67;0.60;;;;;;;21.65;40.22;97112.25;8281340;28;20207;-64
2021/05/10 18:46:49;;;;;;;2.60;0.60;;;;;;;21.54;39.79;97099.38;8285166;28;20203;-64
2021/05/10 18:50:53;;;;;;;2.23;0.43;;;;;;;21.57;39.43;97113.06;8283668;28;20527;-63
2021/05/10 18:54:56;;;;;;;1.77;0.50;;;;;;;21.59;39.26;97120.78;8282494;28;20318;-63
2021/05/10 18:58:58;;;;;;;0.83;0.40;;;;;;;21.48;39.31;97114.00;8282619;28;20374;-65
2021/05/10 19:03:02;;;;;;;1.00;0.30;;;;;;;21.53;39.33;97116.97;8279062;28;20214;-64
2021/05/10 19:07:07;;;;;;;0.50;0.40;;;;;;;21.41;39.58;97121.66;8281364;28;20436;-63
2021/05/10 19:11:09;;;;;;;1.67;0.30;;;;;;;21.27;40.10;97123.06;8276416;28;20238;-64
2021/05/10 19:15:12;;;;;;;2.10;0.60;;;;;;;21.11;40.33;97130.84;8281454;28;20229;-63